createdAt,value
2022-11-04T00:02:47.188Z,90.35
2022-11-04T00:06:09.602Z,90.63
2022-11-04T00:09:29.198Z,90.69
2022-11-04T00:12:37.968Z,90.93
2022-11-04T00:15:58.544Z,90.90
2022-11-04T00:19:01.167Z,91.19
2022-11-04T00:22:21.900Z,91.24
2022-11-04T00:25:42.834Z,91.50
2022-11-04T00:28:44.727Z,91.58
2022-11-04T00:32:05.291Z,91.37
2022-11-04T00:35:07.709Z,91.41
2022-11-04T00:38:09.837Z,91.36
2022-11-04T00:41:27.724Z,91.26
2022-11-04T00:44:30.108Z,91.29
2022-11-04T00:47:32.009Z,91.30
2022-11-04T00:50:33.737Z,91.63
2022-11-04T00:53:35.885Z,91.58
2022-11-04T00:56:38.523Z,91.72
2022-11-04T00:59:40.707Z,91.62
2022-11-04T01:02:42.497Z,91.69
2022-11-04T01:05:44.297Z,91.80
2022-11-04T01:08:46.759Z,91.77
2022-11-04T01:11:48.958Z,91.89
2022-11-04T01:14:50.627Z,91.88
2022-11-04T01:17:52.366Z,92.32
2022-11-04T01:20:54.206Z,91.83
2022-11-04T01:23:56.114Z,91.78
2022-11-04T01:26:57.803Z,91.80
2022-11-04T01:29:59.560Z,91.76
2022-11-04T01:33:01.369Z,91.88
2022-11-04T01:36:04.036Z,91.81
2022-11-04T01:39:05.935Z,92.08
2022-11-04T01:42:13.150Z,92.21
2022-11-04T01:45:17.366Z,92.05
2022-11-04T01:48:26.108Z,92.21
2022-11-04T01:51:30.260Z,92.50
2022-11-04T01:54:32.641Z,92.52
2022-11-04T01:57:37.479Z,92.52
2022-11-04T02:00:40.943Z,92.46
2022-11-04T02:03:55.131Z,92.61
2022-11-04T02:07:01.744Z,92.64
2022-11-04T02:10:04.218Z,92.85
2022-11-04T02:13:06.209Z,92.78
2022-11-04T02:16:24.075Z,92.87
2022-11-04T02:19:57.101Z,92.95
2022-11-04T02:23:40.062Z,92.74
2022-11-04T02:27:06.094Z,93.15
2022-11-04T02:30:09.948Z,93.07
2022-11-04T02:33:17.672Z,92.92
2022-11-04T02:36:32.738Z,92.93
2022-11-04T02:39:47.242Z,92.62
2022-11-04T02:43:01.728Z,92.80
2022-11-04T02:46:07.530Z,93.08
2022-11-04T02:49:15.669Z,93.24
2022-11-04T02:52:27.885Z,93.19
2022-11-04T02:55:31.294Z,93.25
2022-11-04T02:58:40.779Z,93.08
2022-11-04T03:01:44.389Z,93.08
2022-11-04T03:04:49.338Z,93.35
2022-11-04T03:07:52.880Z,93.24
2022-11-04T03:10:59.442Z,93.13
2022-11-04T03:14:26.691Z,92.97
2022-11-04T03:17:37.323Z,92.84
2022-11-04T03:20:41.037Z,92.96
2022-11-04T03:23:42.964Z,92.71
2022-11-04T03:27:07.229Z,92.94
2022-11-04T03:30:12.032Z,92.94
2022-11-04T03:33:34.346Z,93.38
2022-11-04T03:36:36.097Z,92.93
2022-11-04T03:39:37.854Z,93.04
2022-11-04T03:42:44.954Z,93.03
2022-11-04T03:45:47.297Z,93.00
2022-11-04T03:48:52.149Z,93.33
2022-11-04T03:51:54.200Z,93.41
2022-11-04T03:54:55.960Z,93.04
2022-11-04T03:58:09.054Z,93.33
2022-11-04T04:01:18.456Z,93.07
2022-11-04T04:04:29.928Z,93.20
2022-11-04T04:07:37.732Z,93.19
2022-11-04T04:10:51.431Z,93.10
2022-11-04T04:14:40.781Z,92.87
2022-11-04T04:17:52.072Z,93.20
2022-11-04T04:20:55.436Z,93.12
2022-11-04T04:24:18.482Z,93.26
2022-11-04T04:27:33.941Z,93.26
2022-11-04T04:30:36.187Z,93.03
2022-11-04T04:33:38.657Z,93.15
2022-11-04T04:37:08.440Z,93.09
2022-11-04T04:40:32.639Z,93.05
2022-11-04T04:43:53.357Z,93.33
2022-11-04T04:46:56.098Z,93.19
2022-11-04T04:49:59.803Z,93.29
2022-11-04T04:53:04.202Z,93.04
2022-11-04T04:56:06.037Z,93.19
2022-11-04T04:59:07.864Z,93.06
2022-11-04T05:02:09.612Z,93.46
2022-11-04T05:05:13.512Z,93.08
2022-11-04T05:08:15.166Z,93.36
2022-11-04T05:11:16.682Z,93.07
2022-11-04T05:14:18.476Z,93.45
2022-11-04T05:17:20.536Z,92.98
2022-11-04T05:20:22.796Z,93.08
2022-11-04T05:23:24.687Z,92.50
2022-11-04T05:26:26.404Z,91.19
2022-11-04T05:29:28.123Z,91.71
2022-11-04T05:32:31.480Z,91.94
2022-11-04T05:35:33.920Z,92.03
2022-11-04T05:38:35.868Z,91.73
2022-11-04T05:41:37.491Z,92.42
2022-11-04T05:44:39.241Z,92.44
2022-11-04T05:47:41.349Z,92.75
2022-11-04T05:50:43.080Z,92.71
2022-11-04T05:53:44.837Z,92.71
2022-11-04T05:56:46.883Z,92.97
2022-11-04T05:59:48.604Z,92.87
2022-11-04T06:02:50.461Z,92.90
2022-11-04T06:05:52.103Z,93.00
2022-11-04T06:08:53.876Z,93.24
2022-11-04T06:11:55.585Z,93.57
2022-11-04T06:14:57.140Z,93.67
2022-11-04T06:17:58.933Z,93.80
2022-11-04T06:21:29.986Z,93.67
2022-11-04T06:24:31.659Z,93.73
2022-11-04T06:27:33.165Z,93.41
2022-11-04T06:30:34.908Z,93.47
2022-11-04T06:33:37.154Z,94.08
2022-11-04T06:36:39.445Z,94.06
2022-11-04T06:39:41.090Z,94.78
2022-11-04T06:42:43.289Z,95.07
2022-11-04T06:45:45.130Z,95.32
2022-11-04T06:48:46.726Z,95.25
2022-11-04T06:51:48.603Z,95.22
2022-11-04T06:54:50.256Z,95.52
2022-11-04T06:57:52.064Z,95.49
2022-11-04T07:00:53.952Z,95.12
2022-11-04T07:03:58.916Z,95.07
2022-11-04T07:07:00.540Z,95.34
2022-11-04T07:10:02.191Z,95.47
2022-11-04T07:13:03.880Z,95.76
2022-11-04T07:16:06.612Z,95.70
2022-11-04T07:19:08.406Z,95.95
2022-11-04T07:22:10.396Z,95.71
2022-11-04T07:25:12.084Z,96.20
2022-11-04T07:28:13.975Z,96.49
2022-11-04T07:31:17.206Z,96.83
2022-11-04T07:34:18.894Z,96.63
2022-11-04T07:37:20.782Z,96.17
2022-11-04T07:40:22.555Z,96.04
2022-11-04T07:43:24.480Z,95.79
2022-11-04T07:46:26.579Z,95.38
2022-11-04T07:49:28.202Z,94.57
2022-11-04T07:52:29.789Z,94.56
2022-11-04T07:55:31.728Z,94.35
2022-11-04T07:58:34.108Z,94.08
2022-11-04T08:01:35.833Z,92.91
2022-11-04T08:04:37.973Z,91.48
2022-11-04T08:07:40.633Z,90.33
2022-11-04T08:10:42.206Z,89.48
2022-11-04T08:13:44.629Z,88.43
2022-11-04T08:16:46.267Z,89.30
2022-11-04T08:19:47.951Z,90.32
2022-11-04T08:22:49.655Z,90.87
2022-11-04T08:25:51.450Z,90.25
2022-11-04T08:28:53.184Z,89.44
2022-11-04T08:31:55.052Z,87.72
2022-11-04T08:34:56.634Z,85.32
2022-11-04T08:37:58.219Z,83.56
2022-11-04T08:41:00.821Z,84.28
2022-11-04T08:44:04.414Z,83.53
2022-11-04T08:47:06.286Z,83.63
2022-11-04T08:50:08.185Z,83.50
2022-11-04T08:53:10.373Z,83.29
2022-11-04T08:56:26.177Z,83.50
2022-11-04T08:59:28.376Z,85.05
2022-11-04T09:02:30.213Z,84.28
2022-11-04T09:05:32.430Z,83.55
2022-11-04T09:08:34.186Z,82.70
2022-11-04T09:11:39.542Z,81.52
2022-11-04T09:14:41.282Z,79.14
2022-11-04T09:17:44.432Z,77.59
2022-11-04T09:20:46.187Z,74.82
2022-11-04T09:23:48.009Z,74.48
2022-11-04T09:26:49.641Z,74.15
2022-11-04T09:29:51.272Z,75.68
2022-11-04T09:32:53.169Z,75.83
2022-11-04T09:35:57.896Z,76.41
2022-11-04T09:38:59.579Z,75.02
2022-11-04T09:42:18.081Z,74.83
2022-11-04T09:45:24.222Z,74.93
2022-11-04T09:48:30.003Z,73.74
2022-11-04T09:51:53.179Z,74.03
2022-11-04T09:55:12.252Z,75.08
2022-11-04T09:58:16.901Z,76.06
2022-11-04T10:01:18.658Z,76.99
2022-11-04T10:04:32.685Z,77.15
2022-11-04T10:07:41.633Z,76.72
2022-11-04T10:10:51.901Z,77.53
2022-11-04T10:14:13.870Z,76.68
2022-11-04T10:17:47.646Z,76.34
2022-11-04T10:21:11.634Z,76.21
2022-11-04T10:24:20.716Z,76.11
2022-11-04T10:27:26.226Z,74.52
2022-11-04T10:30:29.462Z,73.50
2022-11-04T10:33:52.584Z,73.42
2022-11-04T10:36:56.083Z,72.26
2022-11-04T10:40:09.640Z,71.92
2022-11-04T10:43:14.272Z,71.76
2022-11-04T10:46:28.205Z,71.27
2022-11-04T10:50:27.613Z,69.37
2022-11-04T10:53:28.911Z,67.22
2022-11-04T10:56:40.673Z,67.82
2022-11-04T11:00:02.801Z,68.13
2022-11-04T11:03:42.291Z,68.04
2022-11-04T11:06:50.015Z,67.79
2022-11-04T11:09:57.240Z,67.87
2022-11-04T11:13:02.376Z,66.58
2022-11-04T11:16:06.829Z,66.47
2022-11-04T11:19:15.511Z,67.09
2022-11-04T11:22:48.122Z,67.18
2022-11-04T11:25:50.905Z,66.67
2022-11-04T11:28:59.192Z,66.71
2022-11-04T11:32:01.053Z,66.70
2022-11-04T11:35:07.756Z,66.42
2022-11-04T11:38:27.988Z,66.26
2022-11-04T11:41:31.665Z,66.78
2022-11-04T11:44:48.339Z,66.98
2022-11-04T11:47:55.043Z,67.21
2022-11-04T11:50:59.956Z,67.42
2022-11-04T11:54:06.751Z,67.77
2022-11-04T11:57:35.836Z,68.02
2022-11-04T12:00:48.337Z,68.20
2022-11-04T12:10:51.722Z,68.55
2022-11-04T12:13:58.298Z,68.76
2022-11-04T12:17:30.016Z,68.92
2022-11-04T12:20:50.400Z,68.98
2022-11-04T12:23:59.336Z,69.08
2022-11-04T12:27:39.862Z,69.12
2022-11-04T12:30:54.085Z,68.91
2022-11-04T12:34:25.209Z,68.66
2022-11-04T12:37:32.915Z,68.98
2022-11-04T12:41:04.908Z,68.80
2022-11-04T12:44:30.232Z,68.47
2022-11-04T12:47:41.601Z,68.64
2022-11-04T12:50:58.907Z,68.93
2022-11-04T12:54:35.914Z,69.18
2022-11-04T12:57:43.632Z,69.33
2022-11-04T13:00:48.725Z,69.54
2022-11-04T13:03:55.362Z,69.78
2022-11-04T13:07:19.672Z,70.09
2022-11-04T13:10:50.409Z,70.37
2022-11-04T13:14:23.943Z,70.70
2022-11-04T13:17:39.507Z,70.80
2022-11-04T13:20:46.186Z,70.60
2022-11-04T13:24:04.514Z,70.74
2022-11-04T13:27:16.593Z,70.97
2022-11-04T13:30:22.999Z,71.18
2022-11-04T13:33:35.202Z,71.28
2022-11-04T13:36:41.444Z,71.22
2022-11-04T13:39:54.950Z,71.32
2022-11-04T13:43:37.196Z,71.56
2022-11-04T13:46:39.084Z,71.88
2022-11-04T13:49:40.812Z,72.16
2022-11-04T13:52:52.640Z,72.35
2022-11-04T13:56:01.304Z,72.63
2022-11-04T13:59:17.046Z,72.82
2022-11-04T14:02:19.235Z,72.91
2022-11-04T14:05:31.385Z,73.06
2022-11-04T14:08:33.413Z,73.09
2022-11-04T14:12:19.857Z,73.15
2022-11-04T14:16:00.052Z,73.33
2022-11-04T14:19:44.371Z,73.51
2022-11-04T14:22:54.469Z,73.57
2022-11-04T14:26:04.303Z,73.85
2022-11-04T14:29:18.299Z,73.94
2022-11-04T14:32:27.401Z,73.88
2022-11-04T14:35:30.583Z,74.10
2022-11-04T14:38:34.108Z,74.32
2022-11-04T14:42:01.943Z,74.31
2022-11-04T14:45:08.478Z,74.44
2022-11-04T14:48:18.612Z,74.50
2022-11-04T14:51:31.692Z,74.57
2022-11-04T14:54:34.961Z,74.91
2022-11-04T14:57:51.372Z,75.11
2022-11-04T15:00:56.207Z,75.18
2022-11-04T15:04:12.160Z,75.28
2022-11-04T15:07:36.459Z,75.51
2022-11-04T15:10:38.019Z,75.54
2022-11-04T15:13:48.636Z,75.64
2022-11-04T15:16:53.576Z,75.88
2022-11-04T15:19:57.530Z,76.02
2022-11-04T15:23:01.958Z,76.13
2022-11-04T15:26:04.797Z,76.16
2022-11-04T15:29:10.045Z,76.40
2022-11-04T15:32:18.167Z,76.34
2022-11-04T15:35:20.089Z,76.52
2022-11-04T15:38:24.531Z,76.77
2022-11-04T15:41:46.557Z,76.64
2022-11-04T15:44:53.740Z,76.71
2022-11-04T15:48:23.445Z,76.75
2022-11-04T15:51:25.877Z,76.92
2022-11-04T15:54:39.806Z,77.23
2022-11-04T15:57:42.223Z,77.32
2022-11-04T16:00:52.903Z,77.34
2022-11-04T16:03:57.272Z,77.40
2022-11-04T16:07:04.781Z,77.84
2022-11-04T16:10:32.620Z,77.96
2022-11-04T16:13:34.286Z,78.23
2022-11-04T16:16:36.143Z,78.37
2022-11-04T16:19:38.081Z,78.46
2022-11-04T16:22:40.915Z,78.62
2022-11-04T16:25:42.616Z,78.87
2022-11-04T16:28:44.363Z,79.00
2022-11-04T16:31:46.085Z,79.14
2022-11-04T16:34:53.694Z,79.13
2022-11-04T16:37:56.333Z,79.20
2022-11-04T16:40:58.099Z,79.33
2022-11-04T16:43:59.932Z,79.42
2022-11-04T16:47:02.255Z,79.52
2022-11-04T16:50:14.611Z,79.54
2022-11-04T16:53:16.921Z,79.62
2022-11-04T16:56:21.431Z,79.67
2022-11-04T16:59:23.618Z,79.64
2022-11-04T17:02:32.025Z,79.40
2022-11-04T17:05:33.863Z,80.21
2022-11-04T17:08:35.852Z,80.36
2022-11-04T17:11:37.507Z,79.88
2022-11-04T17:14:39.194Z,79.89
2022-11-04T17:17:41.378Z,80.32
2022-11-04T17:20:50.175Z,80.73
2022-11-04T17:23:53.016Z,80.86
2022-11-04T17:26:54.776Z,80.48
2022-11-04T17:29:56.524Z,80.58
2022-11-04T17:32:58.341Z,80.66
2022-11-04T17:36:04.739Z,80.83
2022-11-04T17:39:09.118Z,81.24
2022-11-04T17:42:29.591Z,81.31
2022-11-04T17:45:32.072Z,81.73
2022-11-04T17:48:33.774Z,82.14
2022-11-04T17:51:36.447Z,82.37
2022-11-04T17:54:38.101Z,82.40
2022-11-04T17:57:39.753Z,81.82
2022-11-04T18:00:41.570Z,81.92
2022-11-04T18:03:43.694Z,82.17
2022-11-04T18:06:45.477Z,82.40
2022-11-04T18:09:47.216Z,82.68
2022-11-04T18:12:48.928Z,82.64
2022-11-04T18:15:50.602Z,82.12
2022-11-04T18:18:52.330Z,82.36
2022-11-04T18:21:54.018Z,82.31
2022-11-04T18:24:55.842Z,82.49
2022-11-04T18:27:57.769Z,82.41
2022-11-04T18:30:59.386Z,82.60
2022-11-04T18:34:03.006Z,83.09
2022-11-04T18:37:04.901Z,83.18
2022-11-04T18:40:07.515Z,83.34
2022-11-04T18:43:09.631Z,83.43
2022-11-04T18:46:14.528Z,83.43
2022-11-04T18:49:17.316Z,83.66
2022-11-04T18:52:19.051Z,83.76
2022-11-04T18:55:20.627Z,83.81
2022-11-04T18:58:22.631Z,84.13
2022-11-04T19:01:29.732Z,84.33
2022-11-04T19:04:32.011Z,84.38
2022-11-04T19:07:33.729Z,84.18
2022-11-04T19:10:59.776Z,84.03
2022-11-04T19:14:09.504Z,84.09
2022-11-04T19:17:11.860Z,84.25
2022-11-04T19:20:14.611Z,84.58
2022-11-04T19:23:16.401Z,85.29
2022-11-04T19:26:20.378Z,85.48
2022-11-04T19:29:22.186Z,85.46
2022-11-04T19:32:24.044Z,85.31
2022-11-04T19:35:25.741Z,85.48
2022-11-04T19:38:27.904Z,85.90
2022-11-04T19:41:48.285Z,85.53
2022-11-04T19:44:50.091Z,85.62
2022-11-04T19:47:51.752Z,86.18
2022-11-04T19:50:53.595Z,86.28
2022-11-04T19:53:55.483Z,86.34
2022-11-04T19:56:58.090Z,86.52
2022-11-04T20:00:00.324Z,86.51
2022-11-04T20:03:02.076Z,86.63
2022-11-04T20:06:04.085Z,87.13
2022-11-04T20:09:07.586Z,86.89
2022-11-04T20:12:27.780Z,87.27
2022-11-04T20:15:29.819Z,86.93
2022-11-04T20:18:31.614Z,87.33
2022-11-04T20:21:35.381Z,87.59
2022-11-04T20:24:37.068Z,87.23
2022-11-04T20:27:38.941Z,86.89
2022-11-04T20:30:42.080Z,87.39
2022-11-04T20:33:44.191Z,87.24
2022-11-04T20:36:46.053Z,87.59
2022-11-04T20:39:47.833Z,87.51
2022-11-04T20:42:49.648Z,87.78
2022-11-04T20:45:52.421Z,88.28
2022-11-04T20:48:55.420Z,88.19
2022-11-04T20:51:57.103Z,88.19
2022-11-04T20:54:58.729Z,88.53
2022-11-04T20:58:00.393Z,88.67
2022-11-04T21:01:03.359Z,88.56
2022-11-04T21:04:07.827Z,89.04
2022-11-04T21:07:09.859Z,89.11
2022-11-04T21:10:11.559Z,89.37
2022-11-04T21:13:13.241Z,89.45
2022-11-04T21:16:16.869Z,89.72
2022-11-04T21:19:20.342Z,89.59
2022-11-04T21:22:22.271Z,89.45
2022-11-04T21:25:24.103Z,89.91
2022-11-04T21:28:26.317Z,89.79
2022-11-04T21:31:30.009Z,90.01
2022-11-04T21:34:31.714Z,90.27
2022-11-04T21:37:36.866Z,90.41
2022-11-04T21:40:38.854Z,90.14
2022-11-04T21:43:41.266Z,90.28
2022-11-04T21:46:42.882Z,90.00
2022-11-04T21:49:44.524Z,90.15
2022-11-04T21:52:46.625Z,90.58
2022-11-04T21:55:48.252Z,90.62
2022-11-04T21:58:51.774Z,90.70
2022-11-04T22:01:53.537Z,91.00
2022-11-04T22:04:55.443Z,90.70
2022-11-04T22:08:15.866Z,90.79
2022-11-04T22:11:20.287Z,91.42
2022-11-04T22:14:22.141Z,91.17
2022-11-04T22:17:23.835Z,90.90
2022-11-04T22:20:25.516Z,91.57
2022-11-04T22:23:27.120Z,91.75
2022-11-04T22:26:31.444Z,91.96
2022-11-04T22:29:34.334Z,91.73
2022-11-04T22:32:36.023Z,92.25
2022-11-04T22:35:37.706Z,92.62
2022-11-04T22:38:41.742Z,93.23
2022-11-04T22:41:43.953Z,93.30
2022-11-04T22:44:45.742Z,93.07
2022-11-04T22:47:47.744Z,93.20
2022-11-04T22:50:58.328Z,93.25
2022-11-04T22:54:07.678Z,92.97
2022-11-04T22:57:10.262Z,93.17
2022-11-04T23:00:12.514Z,93.43
2022-11-04T23:03:14.684Z,93.45
2022-11-04T23:06:16.915Z,93.29
2022-11-04T23:09:18.770Z,93.48
2022-11-04T23:12:39.123Z,93.29
2022-11-04T23:15:59.970Z,93.27
2022-11-04T23:19:01.751Z,93.55
2022-11-04T23:22:22.415Z,93.29
2022-11-04T23:25:24.741Z,93.35
2022-11-04T23:28:45.155Z,93.33
2022-11-04T23:31:46.954Z,93.34
2022-11-04T23:35:07.650Z,93.58
2022-11-04T23:38:09.403Z,93.56
2022-11-04T23:41:29.740Z,93.91
2022-11-04T23:44:50.208Z,93.82
2022-11-04T23:48:14.084Z,94.07
2022-11-04T23:51:34.534Z,94.25
2022-11-04T23:54:55.257Z,94.18
2022-11-04T23:58:16.021Z,94.27
